Kaohsiung International Airport
RCKH : rendu visible

Aérodrome :











RETROUVEZ-NOUS SUR...

 
LOGIN :

S'inscrire | Disclaimer

   EN    FR    IT 

 









Légende :    VFR   VFR Marginal   IFR   IFR Intensif   IFR Très Intensif
Visi : 
Plafond : 
>= 8 km
>= 3000ft
5 à 8 km
1000 à 3000 ft
1500m à 5 km
500 à 1000 ft
800 à 1500m
200 à 500 ft
< 800m
< 200 ft
Symboles :   Orages  Brouillard  Fortes neiges  Fortes précipitations  Vent > 20 kt







- Altitude de l'aérodrome : 31 ft
- Code IATA : KHH


RCKH - Kaohsiung International

DERNIER METAR :
  • 250900Z 35007KT 310V030 9999 FEW016 28/19 Q1014 NOSIG RMK A2995

METARs EXPIRÉS :
  • 250830Z 34005KT 310V030 9000 FEW016 28/20 Q1014 NOSIG RMK A2995
  • 250800Z 33008G22KT 300V010 9000 FEW015 BKN130 28/20 Q1014 NOSIG RMK A2995
  • 250730Z 32008KT 290V020 9000 FEW015 BKN100 28/20 Q1014 NOSIG RMK A2996
  • 250700Z 32006KT 280V350 9999 FEW015 BKN100 29/19 Q1014 NOSIG RMK A2996
  • 250630Z 34005KT 300V040 9999 FEW015 BKN140 29/20 Q1014 NOSIG RMK A2997

TAF TAF RCKH
Valide du 25 à 06h jusqu'au 26 à 12h UTC


250500Z 2506/2612 30008KT 9999 FEW016 SCT040
BECMG 2512/2514 35005KT
TEMPO 2516/2520 4000 HZ
TEMPO 2520/2601 03005KT 3200 BR SCT012 BKN032
BECMG 2601/2603 30008KT
FIR RCAA / Asie



MET'MAP, la Météo Aéronautique d'un coup d'oeil ! - Copyright ORBIFLY Décembre 2007 - Disclaimer

ORBIFLY MET'MAP TEAM :

Programmation & Développement : Alexandra Zaïnal
Conception & Développement : Baudouin d'Aumeries
Co-Programmation & Développement : Marc-Olivier Méhu
Soutien technique & logistique : Manuel Goepfert

Contact : metmap@orbifly.com




SOURCES & CREDITS :

   NOAA       Earth
Advisory